Darstellungsparameter: Aktuell verwendete Einstellungen:
Skalierung der Graphiken ... ?
xyx+y,   Skalierungsfaktor:      Skalierung: Modus: x, Faktor: 1
Darstellungszeitraum ... ?
Vom - - bis: - -   Zeitraum: 03.12.2017 - 03.12.2017
Min/Max/Avg-Anzeige ... ?
Zeige MMA aktuell
Zeige MMA Monat
Zeige MMA alles
Zeige --A aktuell
Zeige --A Monat
Zeige --A alles
Keine MMA-Anzeige
MMA:
Average (ber die Originaldaten)
MMA-Basis: 03.12.2017 - 03.12.2017
Quicknavigation für Darstellung... ?
Tage:      1T, 2T, 3T, 5T -1T -2T -3T -5T +1T +2T +3T +5T
Wochen: 1W, 2W, 3W -1W -2W -3W +1W +2W +3W
Monate: 1M, 3M, 6M -1M -3M -6M +1M +3M +6M
Jahre:    1J, 3J, 5J, 10J -1J -3J -5J -10J +1J +3J +5J +10J
Nutze für die Darstellung ... ?
Originaldaten oder Mittelwerte auf ...
Stundenbasis Tagesbasis Wochenbasis
Monatsbasis Jahresbasis      Datenbasis: Original-Daten
Darstellen als:
Statistik (Auto) Statistik J:M      Darstellung:
Zur Graphik,    zurück zur Übersicht aller Sensoren.
 
Tabellarische Datenbersicht: ?
 
Sensor: Nr:Datum:Temp:Abs-Feuchte:Windchill:Wind:
Aussen-T/F 1 03-12-2017 00:00:00 0.7 C 4.78 g/m*3 0.7 C 0 km/h
2 03-12-2017 00:05:00 0.7 C 4.78 g/m*3 0.7 C 0 km/h
3 03-12-2017 00:10:00 0.7 C 4.78 g/m*3 0.7 C 0 km/h
4 03-12-2017 00:15:00 0.7 C 4.78 g/m*3 0.7 C 0 km/h
5 03-12-2017 00:20:00 0.7 C 4.78 g/m*3 0.7 C 0 km/h
6 03-12-2017 00:25:00 0.7 C 4.78 g/m*3 0.7 C 0 km/h
7 03-12-2017 00:30:00 0.7 C 4.78 g/m*3 0.7 C 0 km/h
8 03-12-2017 00:35:00 0.7 C 4.78 g/m*3 0.7 C 0 km/h
9 03-12-2017 00:40:00 0.7 C 4.78 g/m*3 0.7 C 0 km/h
10 03-12-2017 00:45:00 0.7 C 4.78 g/m*3 0.7 C 0 km/h
11 03-12-2017 00:50:00 0.7 C 4.78 g/m*3 0.7 C 0 km/h
12 03-12-2017 00:55:00 0.7 C 4.78 g/m*3 0.7 C 0 km/h
13 03-12-2017 01:00:00 0.8 C 4.81 g/m*3 0.8 C 0 km/h
14 03-12-2017 01:05:00 0.8 C 4.81 g/m*3 0.8 C 0 km/h
15 03-12-2017 01:10:00 0.8 C 4.81 g/m*3 0.8 C 0 km/h
16 03-12-2017 01:15:00 0.8 C 4.81 g/m*3 0.8 C 0 km/h
17 03-12-2017 01:20:00 0.8 C 4.81 g/m*3 0.8 C 0 km/h
18 03-12-2017 01:25:00 0.8 C 4.81 g/m*3 0.8 C 0 km/h
19 03-12-2017 01:30:00 0.8 C 4.81 g/m*3 0.8 C 0 km/h
20 03-12-2017 01:35:00 0.8 C 4.81 g/m*3 0.8 C 0 km/h
21 03-12-2017 01:40:00 0.7 C 4.78 g/m*3 0.7 C 0 km/h
22 03-12-2017 01:45:00 0.7 C 4.78 g/m*3 0.7 C 0 km/h
23 03-12-2017 01:50:00 0.7 C 4.78 g/m*3 0.7 C 0 km/h
24 03-12-2017 01:55:00 0.7 C 4.78 g/m*3 0.7 C 0 km/h
25 03-12-2017 02:00:00 0.7 C 4.78 g/m*3 0.7 C 0 km/h
Sensor: Nr:Datum:Temp:Abs-Feuchte:Windchill:Wind:
Aussen-T/F 26 03-12-2017 02:05:00 0.7 C 4.78 g/m*3 0.7 C 0 km/h
27 03-12-2017 02:10:00 0.7 C 4.78 g/m*3 0.7 C 0 km/h
28 03-12-2017 02:15:00 0.7 C 4.78 g/m*3 0.7 C 0 km/h
29 03-12-2017 02:20:00 0.7 C 4.78 g/m*3 0.7 C 0 km/h
30 03-12-2017 02:25:00 0.7 C 4.78 g/m*3 0.7 C 0 km/h
31 03-12-2017 02:30:00 0.7 C 4.78 g/m*3 0.7 C 0 km/h
32 03-12-2017 02:35:00 0.7 C 4.78 g/m*3 0.7 C 0 km/h
33 03-12-2017 02:40:00 0.6 C 4.75 g/m*3 0.6 C 0 km/h
34 03-12-2017 02:45:00 0.6 C 4.75 g/m*3 0.6 C 0 km/h
35 03-12-2017 02:50:00 0.6 C 4.75 g/m*3 0.6 C 0 km/h
36 03-12-2017 02:55:00 0.5 C 4.71 g/m*3 0.5 C 0 km/h
37 03-12-2017 03:00:00 0.5 C 4.66 g/m*3 0.5 C 0 km/h
38 03-12-2017 03:05:00 0.4 C 4.63 g/m*3 0.4 C 0 km/h
39 03-12-2017 03:10:00 0.4 C 4.63 g/m*3 0.4 C 0 km/h
40 03-12-2017 03:15:00 0.3 C 4.6 g/m*3 0.3 C 1.6 km/h
41 03-12-2017 03:20:00 0.3 C 4.65 g/m*3 0.3 C 0 km/h
42 03-12-2017 03:25:00 0.3 C 4.65 g/m*3 0.3 C 0 km/h
43 03-12-2017 03:30:00 0.2 C 4.62 g/m*3 0.2 C 0 km/h
44 03-12-2017 03:35:00 0.2 C 4.62 g/m*3 0.2 C 0 km/h
45 03-12-2017 03:40:00 0.2 C 4.62 g/m*3 0.2 C 0 km/h
46 03-12-2017 03:45:00 0.2 C 4.62 g/m*3 0.2 C 0 km/h
47 03-12-2017 03:50:00 0.2 C 4.62 g/m*3 0.2 C 0 km/h
48 03-12-2017 03:55:00 0.2 C 4.62 g/m*3 0.2 C 0 km/h
49 03-12-2017 04:00:00 0.2 C 4.62 g/m*3 0.2 C 0 km/h
50 03-12-2017 04:05:00 0.2 C 4.62 g/m*3 0.2 C 0 km/h
Sensor: Nr:Datum:Temp:Abs-Feuchte:Windchill:Wind:
Aussen-T/F 51 03-12-2017 04:10:00 0.2 C 4.62 g/m*3 0.2 C 0 km/h
52 03-12-2017 04:15:00 0.3 C 4.65 g/m*3 0.3 C 0 km/h
53 03-12-2017 04:20:00 0.3 C 4.65 g/m*3 0.3 C 0 km/h
54 03-12-2017 04:25:00 0.3 C 4.65 g/m*3 0.3 C 0 km/h
55 03-12-2017 04:30:00 0.3 C 4.65 g/m*3 0.3 C 0 km/h
56 03-12-2017 04:35:00 0.3 C 4.65 g/m*3 0.3 C 0 km/h
57 03-12-2017 04:40:00 0.3 C 4.65 g/m*3 0.3 C 0 km/h
58 03-12-2017 04:45:00 0.3 C 4.65 g/m*3 0.3 C 1.6 km/h
59 03-12-2017 04:50:00 0.3 C 4.65 g/m*3 0.3 C 1.6 km/h
60 03-12-2017 04:55:00 0.3 C 4.65 g/m*3 0.3 C 4.8 km/h
61 03-12-2017 05:00:00 0.3 C 4.65 g/m*3 0.3 C 4.8 km/h
62 03-12-2017 05:05:00 0.3 C 4.65 g/m*3 0.3 C 4.8 km/h
63 03-12-2017 05:10:00 0.3 C 4.6 g/m*3 0.3 C 0 km/h
64 03-12-2017 05:15:00 0.3 C 4.6 g/m*3 0.3 C 1.6 km/h
65 03-12-2017 05:20:00 0.3 C 4.6 g/m*3 0.3 C 0 km/h
66 03-12-2017 05:25:00 0.3 C 4.6 g/m*3 0.3 C 0 km/h
67 03-12-2017 05:30:00 0.3 C 4.6 g/m*3 0.3 C 0 km/h
68 03-12-2017 05:35:00 0.3 C 4.6 g/m*3 -1.84 C 6.4 km/h
69 03-12-2017 05:40:00 0.3 C 4.6 g/m*3 0.3 C 4.8 km/h
70 03-12-2017 05:45:00 0.4 C 4.63 g/m*3 0.4 C 3.2 km/h
71 03-12-2017 05:50:00 0.4 C 4.58 g/m*3 -2.3 C 8.1 km/h
72 03-12-2017 05:55:00 0.4 C 4.58 g/m*3 0.4 C 1.6 km/h
73 03-12-2017 06:00:00 0.4 C 4.58 g/m*3 -2.3 C 8.1 km/h
74 03-12-2017 06:05:00 0.5 C 4.61 g/m*3 0.5 C 3.2 km/h
75 03-12-2017 06:10:00 0.5 C 4.56 g/m*3 0.5 C 4.8 km/h
Sensor: Nr:Datum:Temp:Abs-Feuchte:Windchill:Wind:
Aussen-T/F 76 03-12-2017 06:15:00 0.5 C 4.56 g/m*3 0.5 C 1.6 km/h
77 03-12-2017 06:20:00 0.5 C 4.61 g/m*3 0.5 C 1.6 km/h
78 03-12-2017 06:25:00 0.5 C 4.61 g/m*3 0.5 C 0 km/h
79 03-12-2017 06:30:00 0.5 C 4.56 g/m*3 0.5 C 3.2 km/h
80 03-12-2017 06:35:00 0.5 C 4.61 g/m*3 0.5 C 0 km/h
81 03-12-2017 06:40:00 0.4 C 4.58 g/m*3 0.4 C 1.6 km/h
82 03-12-2017 06:45:00 0.4 C 4.58 g/m*3 0.4 C 3.2 km/h
83 03-12-2017 06:50:00 0.5 C 4.61 g/m*3 0.5 C 3.2 km/h
84 03-12-2017 06:55:00 0.4 C 4.58 g/m*3 0.4 C 3.2 km/h
85 03-12-2017 07:00:00 0.5 C 4.61 g/m*3 0.5 C 0 km/h
86 03-12-2017 07:05:00 0.5 C 4.61 g/m*3 0.5 C 0 km/h
87 03-12-2017 07:10:00 0.5 C 4.61 g/m*3 0.5 C 3.2 km/h
88 03-12-2017 07:15:00 0.4 C 4.58 g/m*3 0.4 C 0 km/h
89 03-12-2017 07:20:00 0.4 C 4.58 g/m*3 0.4 C 1.6 km/h
90 03-12-2017 07:25:00 0.4 C 4.58 g/m*3 0.4 C 1.6 km/h
91 03-12-2017 07:30:00 0.4 C 4.58 g/m*3 0.4 C 4.8 km/h
92 03-12-2017 07:35:00 0.4 C 4.58 g/m*3 0.4 C 4.8 km/h
93 03-12-2017 07:40:00 0.4 C 4.53 g/m*3 -3.16 C 11.3 km/h
94 03-12-2017 07:45:00 0.5 C 4.61 g/m*3 -1.6 C 6.4 km/h
95 03-12-2017 07:50:00 0.5 C 4.56 g/m*3 -2.64 C 9.7 km/h
96 03-12-2017 07:55:00 0.5 C 4.61 g/m*3 0.5 C 4.8 km/h
97 03-12-2017 08:00:00 0.5 C 4.61 g/m*3 -2.64 C 9.7 km/h
98 03-12-2017 08:05:00 0.6 C 4.65 g/m*3 0.6 C 4.8 km/h
99 03-12-2017 08:10:00 0.5 C 4.61 g/m*3 -2.18 C 8.1 km/h
100 03-12-2017 08:15:00 0.5 C 4.61 g/m*3 -1.6 C 6.4 km/h
Sensor: Nr:Datum:Temp:Abs-Feuchte:Windchill:Wind:
Aussen-T/F 101 03-12-2017 08:20:00 0.4 C 4.58 g/m*3 0.4 C 4.8 km/h
102 03-12-2017 08:25:00 0.4 C 4.58 g/m*3 -2.3 C 8.1 km/h
103 03-12-2017 08:30:00 0.4 C 4.58 g/m*3 0.4 C 3.2 km/h
104 03-12-2017 08:35:00 0.4 C 4.58 g/m*3 -2.76 C 9.7 km/h
105 03-12-2017 08:40:00 0.4 C 4.58 g/m*3 -1.72 C 6.4 km/h
106 03-12-2017 08:45:00 0.4 C 4.58 g/m*3 -2.3 C 8.1 km/h
107 03-12-2017 08:50:00 0.4 C 4.58 g/m*3 -1.72 C 6.4 km/h
108 03-12-2017 08:55:00 0.4 C 4.58 g/m*3 0.4 C 4.8 km/h
109 03-12-2017 09:00:00 0.5 C 4.61 g/m*3 0.5 C 3.2 km/h
110 03-12-2017 09:05:00 0.5 C 4.61 g/m*3 0.5 C 4.8 km/h
111 03-12-2017 09:10:00 0.6 C 4.7 g/m*3 -1.49 C 6.4 km/h
112 03-12-2017 09:15:00 0.6 C 4.65 g/m*3 -1.49 C 6.4 km/h
113 03-12-2017 09:20:00 0.6 C 4.65 g/m*3 -2.06 C 8.1 km/h
114 03-12-2017 09:25:00 0.6 C 4.65 g/m*3 0.6 C 4.8 km/h
115 03-12-2017 09:30:00 0.6 C 4.65 g/m*3 -1.49 C 6.4 km/h
116 03-12-2017 09:35:00 0.6 C 4.7 g/m*3 0.6 C 1.6 km/h
117 03-12-2017 09:40:00 0.6 C 4.7 g/m*3 0.6 C 1.6 km/h
118 03-12-2017 09:45:00 0.6 C 4.7 g/m*3 -1.49 C 6.4 km/h
119 03-12-2017 09:50:00 0.6 C 4.7 g/m*3 -1.49 C 6.4 km/h
120 03-12-2017 09:55:00 0.6 C 4.7 g/m*3 0.6 C 4.8 km/h
121 03-12-2017 10:00:00 0.6 C 4.7 g/m*3 0.6 C 3.2 km/h
122 03-12-2017 10:05:00 0.7 C 4.73 g/m*3 0.7 C 3.2 km/h
123 03-12-2017 10:10:00 0.7 C 4.73 g/m*3 0.7 C 3.2 km/h
124 03-12-2017 10:15:00 0.7 C 4.73 g/m*3 -1.37 C 6.4 km/h
125 03-12-2017 10:20:00 0.7 C 4.73 g/m*3 -1.37 C 6.4 km/h
Sensor: Nr:Datum:Temp:Abs-Feuchte:Windchill:Wind:
Aussen-T/F 126 03-12-2017 10:25:00 0.7 C 4.73 g/m*3 -2.4 C 9.7 km/h
127 03-12-2017 10:30:00 0.7 C 4.68 g/m*3 -3.15 C 12.9 km/h
128 03-12-2017 10:35:00 0.8 C 4.71 g/m*3 -2.28 C 9.7 km/h
129 03-12-2017 10:40:00 0.8 C 4.71 g/m*3 -2.67 C 11.3 km/h
130 03-12-2017 10:45:00 0.8 C 4.71 g/m*3 -1.26 C 6.4 km/h
131 03-12-2017 10:50:00 0.8 C 4.71 g/m*3 -2.28 C 9.7 km/h
132 03-12-2017 10:55:00 0.8 C 4.71 g/m*3 -1.83 C 8.1 km/h
133 03-12-2017 11:00:00 0.8 C 4.76 g/m*3 -2.28 C 9.7 km/h
134 03-12-2017 11:05:00 0.8 C 4.71 g/m*3 -2.28 C 9.7 km/h
135 03-12-2017 11:10:00 0.8 C 4.71 g/m*3 -3.02 C 12.9 km/h
136 03-12-2017 11:15:00 0.8 C 4.71 g/m*3 -3.02 C 12.9 km/h
137 03-12-2017 11:20:00 0.8 C 4.71 g/m*3 -3.02 C 12.9 km/h
138 03-12-2017 11:25:00 0.8 C 4.76 g/m*3 -1.83 C 8.1 km/h
139 03-12-2017 11:30:00 0.8 C 4.71 g/m*3 -3.02 C 12.9 km/h
140 03-12-2017 11:35:00 0.8 C 4.71 g/m*3 -3.02 C 12.9 km/h
141 03-12-2017 11:40:00 0.8 C 4.71 g/m*3 -2.67 C 11.3 km/h
142 03-12-2017 11:45:00 0.8 C 4.76 g/m*3 -3.02 C 12.9 km/h
143 03-12-2017 11:50:00 0.7 C 4.73 g/m*3 -2.8 C 11.3 km/h
144 03-12-2017 11:55:00 0.7 C 4.73 g/m*3 -2.4 C 9.7 km/h
145 03-12-2017 12:00:00 0.7 C 4.73 g/m*3 -3.75 C 16.1 km/h
146 03-12-2017 12:05:00 0.7 C 4.78 g/m*3 -3.75 C 16.1 km/h
147 03-12-2017 12:10:00 0.7 C 4.78 g/m*3 -2.4 C 9.7 km/h
148 03-12-2017 12:15:00 0.7 C 4.78 g/m*3 -3.46 C 14.5 km/h
149 03-12-2017 12:20:00 0.7 C 4.78 g/m*3 -2.8 C 11.3 km/h
150 03-12-2017 12:25:00 0.6 C 4.75 g/m*3 -2.92 C 11.3 km/h
Sensor: Nr:Datum:Temp:Abs-Feuchte:Windchill:Wind:
Aussen-T/F 151 03-12-2017 12:30:00 0.6 C 4.75 g/m*3 -2.92 C 11.3 km/h
152 03-12-2017 12:35:00 0.6 C 4.75 g/m*3 -3.27 C 12.9 km/h
153 03-12-2017 12:40:00 0.6 C 4.75 g/m*3 -3.58 C 14.5 km/h
154 03-12-2017 12:45:00 0.6 C 4.75 g/m*3 -3.27 C 12.9 km/h
155 03-12-2017 12:50:00 0.6 C 4.75 g/m*3 -3.87 C 16.1 km/h
156 03-12-2017 12:55:00 0.6 C 4.75 g/m*3 -3.27 C 12.9 km/h
157 03-12-2017 13:00:00 0.6 C 4.75 g/m*3 -2.52 C 9.7 km/h
158 03-12-2017 13:05:00 0.5 C 4.71 g/m*3 -3.04 C 11.3 km/h
159 03-12-2017 13:10:00 0.5 C 4.71 g/m*3 -4.26 C 17.7 km/h
160 03-12-2017 13:15:00 0.4 C 4.68 g/m*3 -4.39 C 17.7 km/h
161 03-12-2017 13:20:00 0.4 C 4.68 g/m*3 -3.51 C 12.9 km/h
162 03-12-2017 13:25:00 0.4 C 4.68 g/m*3 -3.16 C 11.3 km/h
163 03-12-2017 13:30:00 0.4 C 4.68 g/m*3 -3.51 C 12.9 km/h
164 03-12-2017 13:35:00 0.4 C 4.73 g/m*3 -1.72 C 6.4 km/h
165 03-12-2017 13:40:00 0.5 C 4.71 g/m*3 -3.04 C 11.3 km/h
166 03-12-2017 13:45:00 0.4 C 4.68 g/m*3 -3.16 C 11.3 km/h
167 03-12-2017 13:50:00 0.4 C 4.68 g/m*3 -2.76 C 9.7 km/h
168 03-12-2017 13:55:00 0.4 C 4.68 g/m*3 -3.16 C 11.3 km/h
169 03-12-2017 14:00:00 0.4 C 4.68 g/m*3 -2.3 C 8.1 km/h
170 03-12-2017 14:05:00 0.4 C 4.68 g/m*3 -2.76 C 9.7 km/h
171 03-12-2017 14:10:00 0.4 C 4.68 g/m*3 -2.76 C 9.7 km/h
172 03-12-2017 14:15:00 0.4 C 4.68 g/m*3 -2.76 C 9.7 km/h
173 03-12-2017 14:20:00 0.5 C 4.71 g/m*3 -2.18 C 8.1 km/h
174 03-12-2017 14:25:00 0.5 C 4.71 g/m*3 -3.04 C 11.3 km/h
175 03-12-2017 14:30:00 0.5 C 4.71 g/m*3 -2.64 C 9.7 km/h
Sensor: Nr:Datum:Temp:Abs-Feuchte:Windchill:Wind:
Aussen-T/F 176 03-12-2017 14:35:00 0.5 C 4.71 g/m*3 -2.18 C 8.1 km/h
177 03-12-2017 14:40:00 0.6 C 4.75 g/m*3 -2.92 C 11.3 km/h
178 03-12-2017 14:45:00 0.6 C 4.75 g/m*3 -2.92 C 11.3 km/h
179 03-12-2017 14:50:00 0.6 C 4.75 g/m*3 -2.06 C 8.1 km/h
180 03-12-2017 14:55:00 0.6 C 4.75 g/m*3 -1.49 C 6.4 km/h
181 03-12-2017 15:00:00 0.6 C 4.75 g/m*3 -2.06 C 8.1 km/h
182 03-12-2017 15:05:00 0.6 C 4.75 g/m*3 -2.06 C 8.1 km/h
183 03-12-2017 15:10:00 0.6 C 4.75 g/m*3 -3.27 C 12.9 km/h
184 03-12-2017 15:15:00 0.6 C 4.75 g/m*3 -2.52 C 9.7 km/h
185 03-12-2017 15:20:00 0.6 C 4.75 g/m*3 -2.92 C 11.3 km/h
186 03-12-2017 15:25:00 0.6 C 4.75 g/m*3 -2.92 C 11.3 km/h
187 03-12-2017 15:30:00 0.6 C 4.75 g/m*3 -2.92 C 11.3 km/h
188 03-12-2017 15:35:00 0.6 C 4.75 g/m*3 -3.58 C 14.5 km/h
189 03-12-2017 15:40:00 0.6 C 4.75 g/m*3 -2.06 C 8.1 km/h
190 03-12-2017 15:45:00 0.5 C 4.71 g/m*3 -3.39 C 12.9 km/h
191 03-12-2017 15:50:00 0.5 C 4.71 g/m*3 -3.39 C 12.9 km/h
192 03-12-2017 15:55:00 0.5 C 4.71 g/m*3 -3.39 C 12.9 km/h
193 03-12-2017 16:00:00 0.5 C 4.71 g/m*3 -2.18 C 8.1 km/h
194 03-12-2017 16:05:00 0.5 C 4.71 g/m*3 -3.04 C 11.3 km/h
195 03-12-2017 16:10:00 0.5 C 4.66 g/m*3 -3.39 C 12.9 km/h
196 03-12-2017 16:15:00 0.5 C 4.66 g/m*3 -3.71 C 14.5 km/h
197 03-12-2017 16:20:00 0.5 C 4.71 g/m*3 -4.26 C 17.7 km/h
198 03-12-2017 16:25:00 0.5 C 4.71 g/m*3 -3.39 C 12.9 km/h
199 03-12-2017 16:30:00 0.6 C 4.75 g/m*3 -3.27 C 12.9 km/h
200 03-12-2017 16:35:00 0.5 C 4.71 g/m*3 -2.18 C 8.1 km/h
Sensor: Nr:Datum:Temp:Abs-Feuchte:Windchill:Wind:
Aussen-T/F 201 03-12-2017 16:40:00 0.5 C 4.66 g/m*3 -3.71 C 14.5 km/h
202 03-12-2017 16:45:00 0.6 C 4.7 g/m*3 -2.06 C 8.1 km/h
203 03-12-2017 16:50:00 0.6 C 4.7 g/m*3 -2.52 C 9.7 km/h
204 03-12-2017 16:55:00 0.6 C 4.7 g/m*3 -2.92 C 11.3 km/h
205 03-12-2017 17:00:00 0.6 C 4.7 g/m*3 -1.49 C 6.4 km/h
206 03-12-2017 17:05:00 0.6 C 4.7 g/m*3 -1.49 C 6.4 km/h
207 03-12-2017 17:10:00 0.6 C 4.7 g/m*3 -3.58 C 14.5 km/h
208 03-12-2017 17:15:00 0.6 C 4.7 g/m*3 -2.52 C 9.7 km/h
209 03-12-2017 17:20:00 0.6 C 4.7 g/m*3 -1.49 C 6.4 km/h
210 03-12-2017 17:25:00 0.6 C 4.7 g/m*3 -2.06 C 8.1 km/h
211 03-12-2017 17:30:00 0.7 C 4.73 g/m*3 -1.95 C 8.1 km/h
212 03-12-2017 17:35:00 0.7 C 4.73 g/m*3 -2.4 C 9.7 km/h
213 03-12-2017 17:40:00 0.7 C 4.73 g/m*3 -1.95 C 8.1 km/h
214 03-12-2017 17:45:00 0.7 C 4.73 g/m*3 -1.37 C 6.4 km/h
215 03-12-2017 17:50:00 0.7 C 4.73 g/m*3 -1.95 C 8.1 km/h
216 03-12-2017 17:55:00 0.7 C 4.73 g/m*3 -2.8 C 11.3 km/h
217 03-12-2017 18:00:00 0.7 C 4.73 g/m*3 -2.8 C 11.3 km/h
218 03-12-2017 18:05:00 0.7 C 4.73 g/m*3 -1.95 C 8.1 km/h
219 03-12-2017 18:10:00 0.7 C 4.73 g/m*3 -1.95 C 8.1 km/h
220 03-12-2017 18:15:00 0.7 C 4.73 g/m*3 -3.15 C 12.9 km/h
221 03-12-2017 18:20:00 0.8 C 4.76 g/m*3 -2.28 C 9.7 km/h
222 03-12-2017 18:25:00 0.8 C 4.76 g/m*3 -1.83 C 8.1 km/h
223 03-12-2017 18:30:00 0.8 C 4.76 g/m*3 -1.83 C 8.1 km/h
224 03-12-2017 18:35:00 0.8 C 4.76 g/m*3 -2.28 C 9.7 km/h
225 03-12-2017 18:40:00 0.8 C 4.76 g/m*3 -2.67 C 11.3 km/h
Sensor: Nr:Datum:Temp:Abs-Feuchte:Windchill:Wind:
Aussen-T/F 226 03-12-2017 18:45:00 0.8 C 4.76 g/m*3 -2.67 C 11.3 km/h
227 03-12-2017 18:50:00 0.9 C 4.79 g/m*3 -2.55 C 11.3 km/h
228 03-12-2017 18:55:00 0.9 C 4.79 g/m*3 -2.16 C 9.7 km/h
229 03-12-2017 19:00:00 0.9 C 4.85 g/m*3 -2.16 C 9.7 km/h
230 03-12-2017 19:05:00 0.9 C 4.85 g/m*3 -1.14 C 6.4 km/h
231 03-12-2017 19:10:00 0.9 C 4.85 g/m*3 -2.16 C 9.7 km/h
232 03-12-2017 19:15:00 0.9 C 4.85 g/m*3 -3.21 C 14.5 km/h
233 03-12-2017 19:20:00 0.9 C 4.85 g/m*3 -1.71 C 8.1 km/h
234 03-12-2017 19:25:00 0.9 C 4.85 g/m*3 -1.71 C 8.1 km/h
235 03-12-2017 19:30:00 0.9 C 4.85 g/m*3 -1.71 C 8.1 km/h
236 03-12-2017 19:35:00 0.9 C 4.85 g/m*3 -1.71 C 8.1 km/h
237 03-12-2017 19:40:00 0.9 C 4.85 g/m*3 -2.55 C 11.3 km/h
238 03-12-2017 19:45:00 0.9 C 4.85 g/m*3 -1.71 C 8.1 km/h
239 03-12-2017 19:50:00 0.9 C 4.85 g/m*3 -1.71 C 8.1 km/h
240 03-12-2017 19:55:00 0.9 C 4.85 g/m*3 -2.16 C 9.7 km/h
241 03-12-2017 20:00:00 0.9 C 4.85 g/m*3 -1.71 C 8.1 km/h
242 03-12-2017 20:05:00 0.9 C 4.85 g/m*3 -2.9 C 12.9 km/h
243 03-12-2017 20:10:00 1 C 4.88 g/m*3 -2.04 C 9.7 km/h
244 03-12-2017 20:15:00 1 C 4.88 g/m*3 -1.03 C 6.4 km/h
245 03-12-2017 20:20:00 1 C 4.88 g/m*3 -2.04 C 9.7 km/h
246 03-12-2017 20:25:00 1 C 4.88 g/m*3 -2.43 C 11.3 km/h
247 03-12-2017 20:30:00 1 C 4.88 g/m*3 -1.59 C 8.1 km/h
248 03-12-2017 20:35:00 1 C 4.88 g/m*3 -1.59 C 8.1 km/h
249 03-12-2017 20:40:00 1.1 C 4.91 g/m*3 -1.48 C 8.1 km/h
250 03-12-2017 20:45:00 1.1 C 4.91 g/m*3 -2.31 C 11.3 km/h
Sensor: Nr:Datum:Temp:Abs-Feuchte:Windchill:Wind:
Aussen-T/F 251 03-12-2017 20:50:00 1.1 C 4.86 g/m*3 -2.31 C 11.3 km/h
252 03-12-2017 20:55:00 1.1 C 4.86 g/m*3 -0.91 C 6.4 km/h
253 03-12-2017 21:00:00 1.1 C 4.86 g/m*3 1.1 C 4.8 km/h
254 03-12-2017 21:05:00 1.1 C 4.91 g/m*3 -0.91 C 6.4 km/h
255 03-12-2017 21:10:00 1.1 C 4.91 g/m*3 -0.91 C 6.4 km/h
256 03-12-2017 21:15:00 1.1 C 4.91 g/m*3 1.1 C 4.8 km/h
257 03-12-2017 21:20:00 1.1 C 4.91 g/m*3 -1.48 C 8.1 km/h
258 03-12-2017 21:25:00 1.1 C 4.91 g/m*3 -1.92 C 9.7 km/h
259 03-12-2017 21:30:00 1.1 C 4.91 g/m*3 -1.92 C 9.7 km/h
260 03-12-2017 21:35:00 1.2 C 4.95 g/m*3 -0.8 C 6.4 km/h
261 03-12-2017 21:40:00 1.2 C 4.95 g/m*3 1.2 C 4.8 km/h
262 03-12-2017 21:45:00 1.2 C 4.95 g/m*3 -0.8 C 6.4 km/h
263 03-12-2017 21:50:00 1.2 C 4.95 g/m*3 -1.8 C 9.7 km/h
264 03-12-2017 21:55:00 1.2 C 4.95 g/m*3 -1.8 C 9.7 km/h
265 03-12-2017 22:00:00 1.2 C 4.95 g/m*3 -0.8 C 6.4 km/h
266 03-12-2017 22:05:00 1.2 C 4.95 g/m*3 -2.19 C 11.3 km/h
267 03-12-2017 22:10:00 1.2 C 4.95 g/m*3 -0.8 C 6.4 km/h
268 03-12-2017 22:15:00 1.3 C 4.98 g/m*3 -0.68 C 6.4 km/h
269 03-12-2017 22:20:00 1.3 C 4.98 g/m*3 -1.24 C 8.1 km/h
270 03-12-2017 22:25:00 1.3 C 4.98 g/m*3 -1.69 C 9.7 km/h
271 03-12-2017 22:30:00 1.3 C 4.98 g/m*3 -2.07 C 11.3 km/h
272 03-12-2017 22:35:00 1.3 C 4.98 g/m*3 -2.41 C 12.9 km/h
273 03-12-2017 22:40:00 1.3 C 4.98 g/m*3 -1.24 C 8.1 km/h
274 03-12-2017 22:45:00 1.3 C 4.98 g/m*3 1.3 C 3.2 km/h
275 03-12-2017 22:50:00 1.3 C 4.98 g/m*3 -0.68 C 6.4 km/h
Sensor: Nr:Datum:Temp:Abs-Feuchte:Windchill:Wind:
Aussen-T/F 276 03-12-2017 22:55:00 1.3 C 4.98 g/m*3 1.3 C 4.8 km/h
277 03-12-2017 23:00:00 1.3 C 4.98 g/m*3 -0.68 C 6.4 km/h
278 03-12-2017 23:05:00 1.3 C 4.98 g/m*3 -1.24 C 8.1 km/h
279 03-12-2017 23:10:00 1.3 C 4.98 g/m*3 -0.68 C 6.4 km/h
280 03-12-2017 23:15:00 1.3 C 4.98 g/m*3 1.3 C 0 km/h
281 03-12-2017 23:20:00 1.3 C 4.98 g/m*3 1.3 C 4.8 km/h
282 03-12-2017 23:25:00 1.3 C 5.03 g/m*3 1.3 C 3.2 km/h
283 03-12-2017 23:30:00 1.3 C 5.03 g/m*3 -1.24 C 8.1 km/h
284 03-12-2017 23:35:00 1.3 C 5.03 g/m*3 -0.68 C 6.4 km/h
285 03-12-2017 23:40:00 1.3 C 5.03 g/m*3 -1.24 C 8.1 km/h
286 03-12-2017 23:45:00 1.3 C 5.03 g/m*3 -0.68 C 6.4 km/h
287 03-12-2017 23:50:00 1.4 C 5.07 g/m*3 -0.56 C 6.4 km/h
288 03-12-2017 23:55:00 1.4 C 5.07 g/m*3 -1.12 C 8.1 km/h

Legende:
   Min
   Max


Maximal/Minimal-Werte vom 03.12.2017 - 03.12.2017

Sensor Min Max Avg
Temp
(Aussen-T/F)
0.2 °C
03-12-2017  03:30:00
1.4 °C
03-12-2017  23:50:00
0.68 °C
Abs-Feuchte
(Aussen-T/F)
4.53 g/m*3
03-12-2017  07:40:00
5.07 g/m*3
03-12-2017  23:50:00
4.73 g/m*3
Windchill
(Aussen-T/F)
-4.39 C
03-12-2017  13:15:00
1.3 C
03-12-2017  22:45:00
-1.18 C

Die Daten stammen von einer Davis Vantage Pro 2 Wetter-Station und werden unter Linux mit der Software wview2wettercgi und aufbereitet. Alle Angaben erfolgen ohne Gewähr für ihre Vollständigkeit oder Richtigkeit.
Kontakt: Rainer Krienke krienke@uni-koblenz.de . Meine Webseiten an der Uni Koblenz oder privat.
Version: $Revision: 0.78 $